createdAt,value
2017-07-20T00:02:01.894Z,65.66
2017-07-20T00:04:27.792Z,65.62
2017-07-20T00:06:53.830Z,66.53
2017-07-20T00:09:19.800Z,66.42
2017-07-20T00:11:45.750Z,66.83
2017-07-20T00:14:11.672Z,66.42
2017-07-20T00:16:37.638Z,66.76
2017-07-20T00:19:03.494Z,66.75
2017-07-20T00:21:29.500Z,66.67
2017-07-20T00:23:55.467Z,66.68
2017-07-20T00:26:21.390Z,66.99
2017-07-20T00:28:47.326Z,66.73
2017-07-20T00:31:13.188Z,67.80
2017-07-20T00:33:39.190Z,67.61
2017-07-20T00:36:05.337Z,67.47
2017-07-20T00:38:31.218Z,67.46
2017-07-20T00:40:57.136Z,66.96
2017-07-20T00:43:24.717Z,66.14
2017-07-20T00:45:51.122Z,66.24
2017-07-20T00:48:17.038Z,66.34
2017-07-20T00:50:43.058Z,66.45
2017-07-20T00:53:08.984Z,66.12
2017-07-20T00:55:34.916Z,66.57
2017-07-20T00:58:00.825Z,66.15
2017-07-20T01:00:26.728Z,66.62
2017-07-20T01:02:52.662Z,65.99
2017-07-20T01:05:18.602Z,66.12
2017-07-20T01:07:44.606Z,66.30
2017-07-20T01:10:10.503Z,65.33
2017-07-20T01:12:36.360Z,65.15
2017-07-20T01:15:02.296Z,65.36
2017-07-20T01:17:28.189Z,65.46
2017-07-20T01:19:54.106Z,65.42
2017-07-20T01:22:20.075Z,65.36
2017-07-20T01:24:46.129Z,65.11
2017-07-20T01:27:12.067Z,65.16
2017-07-20T01:29:37.979Z,65.50
2017-07-20T01:32:03.890Z,65.08
2017-07-20T01:34:29.822Z,65.83
2017-07-20T01:36:55.741Z,64.50
2017-07-20T01:39:21.622Z,63.98
2017-07-20T01:41:47.507Z,63.65
2017-07-20T01:44:13.412Z,63.80
2017-07-20T01:46:39.364Z,64.09
2017-07-20T01:49:05.246Z,65.27
2017-07-20T01:51:31.183Z,67.17
2017-07-20T01:53:57.106Z,69.64
2017-07-20T01:56:22.961Z,73.50
2017-07-20T01:58:48.970Z,70.24
2017-07-20T02:01:14.844Z,69.43
2017-07-20T02:03:40.795Z,70.34
2017-07-20T02:06:06.686Z,69.17
2017-07-20T02:08:32.622Z,71.23
2017-07-20T02:10:58.525Z,68.25
2017-07-20T02:13:24.627Z,71.25
2017-07-20T02:15:50.505Z,70.12
2017-07-20T02:18:16.396Z,68.57
2017-07-20T02:20:42.329Z,72.61
2017-07-20T02:23:08.182Z,72.96
2017-07-20T02:25:34.099Z,71.45
2017-07-20T02:28:00.019Z,75.53
2017-07-20T02:30:25.882Z,75.23
2017-07-20T02:32:51.841Z,70.88
2017-07-20T02:35:17.762Z,73.92
2017-07-20T02:37:43.692Z,68.09
2017-07-20T02:40:09.577Z,70.15
2017-07-20T02:42:35.478Z,70.98
2017-07-20T02:45:01.368Z,70.47
2017-07-20T02:47:27.208Z,70.58
2017-07-20T02:49:53.773Z,65.90
2017-07-20T02:52:19.651Z,67.79
2017-07-20T02:54:45.506Z,66.82
2017-07-20T02:57:12.271Z,67.94
2017-07-20T02:59:38.100Z,70.11
2017-07-20T03:02:03.927Z,68.39
2017-07-20T03:04:29.775Z,66.30
2017-07-20T03:06:55.602Z,65.71
2017-07-20T03:09:21.456Z,63.48
2017-07-20T03:11:47.352Z,62.18
2017-07-20T03:14:13.212Z,62.75
2017-07-20T03:16:39.831Z,61.29
2017-07-20T03:19:05.705Z,60.89
2017-07-20T03:21:31.558Z,58.77
2017-07-20T03:23:57.456Z,58.99
2017-07-20T03:26:23.310Z,60.85
2017-07-20T03:28:49.108Z,61.63
2017-07-20T03:31:14.947Z,65.22
2017-07-20T03:33:40.845Z,65.55
2017-07-20T03:36:06.765Z,64.73
2017-07-20T03:38:32.612Z,64.54
2017-07-20T03:40:58.452Z,64.43
2017-07-20T03:43:24.260Z,62.28
2017-07-20T03:45:50.165Z,60.48
2017-07-20T03:48:16.057Z,61.23
2017-07-20T03:50:41.906Z,59.77
2017-07-20T03:53:07.804Z,58.96
2017-07-20T03:55:33.789Z,59.89
2017-07-20T03:57:59.633Z,59.01
2017-07-20T04:00:25.423Z,59.61
2017-07-20T04:02:51.257Z,59.94
2017-07-20T04:05:17.269Z,60.01
2017-07-20T04:07:43.089Z,59.95
2017-07-20T04:10:08.926Z,60.31
2017-07-20T04:12:34.750Z,60.96
2017-07-20T04:15:00.553Z,61.62
2017-07-20T04:17:26.370Z,62.45
2017-07-20T04:19:52.150Z,62.58
2017-07-20T04:22:17.992Z,63.46
2017-07-20T04:24:43.828Z,63.81
2017-07-20T04:27:09.662Z,63.07
2017-07-20T04:29:35.471Z,63.31
2017-07-20T04:32:01.269Z,63.13
2017-07-20T04:34:27.081Z,62.97
2017-07-20T04:36:52.861Z,63.31
2017-07-20T04:39:18.719Z,63.89
2017-07-20T04:41:44.549Z,64.23
2017-07-20T04:44:10.338Z,63.44
2017-07-20T04:46:36.163Z,64.03
2017-07-20T04:49:01.946Z,64.20
2017-07-20T04:51:27.814Z,63.65
2017-07-20T04:53:53.628Z,64.09
2017-07-20T04:56:19.436Z,64.44
2017-07-20T04:58:45.309Z,64.70
2017-07-20T05:01:11.222Z,64.69
2017-07-20T05:03:37.074Z,63.90
2017-07-20T05:06:02.878Z,64.53
2017-07-20T05:08:28.669Z,64.11
2017-07-20T05:10:54.541Z,63.83
2017-07-20T05:13:20.345Z,64.07
2017-07-20T05:15:46.161Z,64.34
2017-07-20T05:18:12.075Z,64.69
2017-07-20T05:20:37.979Z,65.05
2017-07-20T05:23:03.813Z,65.41
2017-07-20T05:25:29.615Z,67.23
2017-07-20T05:27:55.425Z,66.78
2017-07-20T05:30:21.294Z,65.13
2017-07-20T05:32:47.108Z,65.93
2017-07-20T05:35:13.021Z,66.50
2017-07-20T05:37:38.936Z,66.58
2017-07-20T05:40:04.765Z,64.97
2017-07-20T05:42:30.597Z,64.26
2017-07-20T05:44:56.402Z,64.49
2017-07-20T05:47:22.222Z,64.20
2017-07-20T05:49:48.015Z,64.93
2017-07-20T05:52:13.861Z,63.54
2017-07-20T05:54:39.671Z,62.21
2017-07-20T05:57:05.490Z,63.02
2017-07-20T05:59:31.393Z,63.53
2017-07-20T06:01:57.341Z,62.98
2017-07-20T06:04:23.145Z,62.98
2017-07-20T06:06:48.936Z,62.69
2017-07-20T06:09:14.785Z,63.36
2017-07-20T06:11:40.617Z,62.47
2017-07-20T06:14:06.465Z,62.74
2017-07-20T06:16:32.286Z,62.46
2017-07-20T06:18:58.111Z,62.17
2017-07-20T06:21:23.943Z,61.41
2017-07-20T06:23:49.786Z,61.32
2017-07-20T06:26:15.696Z,60.49
2017-07-20T06:28:41.593Z,61.54
2017-07-20T06:31:07.430Z,60.38
2017-07-20T06:33:33.230Z,60.28
2017-07-20T06:35:59.207Z,60.39
2017-07-20T06:38:25.065Z,60.47
2017-07-20T06:40:50.888Z,60.62
2017-07-20T06:43:16.677Z,60.94
2017-07-20T06:45:42.469Z,61.16
2017-07-20T06:48:08.308Z,61.19
2017-07-20T06:50:34.106Z,61.10
2017-07-20T06:52:59.932Z,61.00
2017-07-20T06:55:25.749Z,61.02
2017-07-20T06:57:51.564Z,61.59
2017-07-20T07:00:17.390Z,61.79
2017-07-20T07:02:43.192Z,61.12
2017-07-20T07:05:10.065Z,61.21
2017-07-20T07:07:35.866Z,59.41
2017-07-20T07:10:01.696Z,59.72
2017-07-20T07:12:27.487Z,60.14
2017-07-20T07:14:53.401Z,60.20
2017-07-20T07:17:19.233Z,60.55
2017-07-20T07:19:45.133Z,60.94
2017-07-20T07:22:10.996Z,60.77
2017-07-20T07:24:36.796Z,60.54
2017-07-20T07:27:02.576Z,59.96
2017-07-20T07:29:28.456Z,60.69
2017-07-20T07:31:55.045Z,58.63
2017-07-20T07:34:20.949Z,57.82
2017-07-20T07:36:46.936Z,58.63
2017-07-20T07:39:12.737Z,58.25
2017-07-20T07:41:38.523Z,56.64
2017-07-20T07:44:04.372Z,53.84
2017-07-20T07:46:30.206Z,54.20
2017-07-20T07:48:56.047Z,53.40
2017-07-20T07:51:21.870Z,54.05
2017-07-20T07:53:47.691Z,54.49
2017-07-20T07:56:13.509Z,54.99
2017-07-20T07:58:39.342Z,54.23
2017-07-20T08:01:05.175Z,54.98
2017-07-20T08:03:30.980Z,54.35
2017-07-20T08:05:56.825Z,54.28
2017-07-20T08:08:22.730Z,53.52
2017-07-20T08:10:48.574Z,52.22
2017-07-20T08:13:14.405Z,53.29
2017-07-20T08:15:40.260Z,54.04
2017-07-20T08:18:06.092Z,52.22
2017-07-20T08:20:31.881Z,51.34
2017-07-20T08:22:57.729Z,54.70
2017-07-20T08:25:23.533Z,54.73
2017-07-20T08:27:49.581Z,55.69
2017-07-20T08:30:15.457Z,53.56
2017-07-20T08:32:41.309Z,53.90
2017-07-20T08:35:07.155Z,55.49
2017-07-20T08:37:32.989Z,55.46
2017-07-20T08:39:58.860Z,56.52
2017-07-20T08:42:24.706Z,59.72
2017-07-20T08:44:50.504Z,59.29
2017-07-20T08:47:16.302Z,62.01
2017-07-20T08:49:42.205Z,63.11
2017-07-20T08:52:08.005Z,64.14
2017-07-20T08:54:33.913Z,65.89
2017-07-20T08:56:59.741Z,66.42
2017-07-20T08:59:25.678Z,63.66
2017-07-20T09:01:51.590Z,62.42
2017-07-20T09:04:19.041Z,61.53
2017-07-20T09:06:44.959Z,60.25
2017-07-20T09:09:10.940Z,60.96
2017-07-20T09:11:36.813Z,63.40
2017-07-20T09:14:02.796Z,65.01
2017-07-20T09:16:28.589Z,63.27
2017-07-20T09:18:54.403Z,66.12
2017-07-20T09:21:20.225Z,69.04
2017-07-20T09:23:46.073Z,69.31
2017-07-20T09:26:11.901Z,71.16
2017-07-20T09:28:37.815Z,70.26
2017-07-20T09:31:03.667Z,72.86
2017-07-20T09:33:29.499Z,73.51
2017-07-20T09:35:55.312Z,74.29
2017-07-20T09:38:21.137Z,74.34
2017-07-20T09:40:46.936Z,74.97
2017-07-20T09:43:12.747Z,75.99
2017-07-20T09:45:38.665Z,76.55
2017-07-20T09:48:04.469Z,76.50
2017-07-20T09:50:30.325Z,77.34
2017-07-20T09:52:56.254Z,77.84
2017-07-20T09:55:22.041Z,77.32
2017-07-20T09:57:47.869Z,80.52
2017-07-20T10:00:13.721Z,81.02
2017-07-20T10:02:39.507Z,81.49
2017-07-20T10:05:05.331Z,77.33
2017-07-20T10:07:31.112Z,79.20
2017-07-20T10:09:57.055Z,77.95
2017-07-20T10:12:22.872Z,81.68
2017-07-20T10:14:48.702Z,83.10
2017-07-20T10:17:14.703Z,80.30
2017-07-20T10:19:40.513Z,82.29
2017-07-20T10:22:06.352Z,81.63
2017-07-20T10:24:32.148Z,83.73
2017-07-20T10:26:58.112Z,83.62
2017-07-20T10:29:23.912Z,82.34
2017-07-20T10:31:49.700Z,80.83
2017-07-20T10:34:15.568Z,82.52
2017-07-20T10:36:41.372Z,84.90
2017-07-20T10:39:07.177Z,85.67
2017-07-20T10:41:33.019Z,86.23
2017-07-20T10:43:58.818Z,84.01
2017-07-20T10:46:24.625Z,84.46
2017-07-20T10:48:50.453Z,81.08
2017-07-20T10:51:16.348Z,83.63
2017-07-20T10:53:42.432Z,84.36
2017-07-20T10:56:08.300Z,84.38
2017-07-20T10:58:34.120Z,84.21
2017-07-20T11:01:00.077Z,85.06
2017-07-20T11:03:25.917Z,84.57
2017-07-20T11:05:51.797Z,82.70
2017-07-20T11:08:17.665Z,81.51
2017-07-20T11:10:43.458Z,79.15
2017-07-20T11:13:09.271Z,78.64
2017-07-20T11:15:35.097Z,77.20
2017-07-20T11:18:00.899Z,75.64
2017-07-20T11:20:26.746Z,76.30
2017-07-20T11:22:52.546Z,78.66
2017-07-20T11:25:18.328Z,75.04
2017-07-20T11:27:44.185Z,76.39
2017-07-20T11:30:09.992Z,77.99
2017-07-20T11:32:35.832Z,78.29
2017-07-20T11:35:01.629Z,80.13
2017-07-20T11:37:27.468Z,81.56
2017-07-20T11:39:53.266Z,82.89
2017-07-20T11:42:19.077Z,85.63
2017-07-20T11:44:44.991Z,82.73
2017-07-20T11:47:10.986Z,80.63
2017-07-20T11:49:36.847Z,82.24
2017-07-20T11:52:02.815Z,78.96
2017-07-20T11:54:28.652Z,78.89
2017-07-20T11:56:54.725Z,77.86
2017-07-20T11:59:20.640Z,79.19
2017-07-20T12:01:46.463Z,78.47
2017-07-20T12:04:12.283Z,78.05
2017-07-20T12:06:38.202Z,76.56
2017-07-20T12:09:04.098Z,77.60
2017-07-20T12:11:29.952Z,71.87
2017-07-20T12:13:55.840Z,73.73
2017-07-20T12:16:21.901Z,74.61
2017-07-20T12:18:47.774Z,72.45
2017-07-20T12:21:13.632Z,71.80
2017-07-20T12:23:39.472Z,70.77
2017-07-20T12:26:05.273Z,67.96
2017-07-20T12:28:31.132Z,74.08
2017-07-20T12:30:56.986Z,68.98
2017-07-20T12:33:22.974Z,72.79
2017-07-20T12:35:48.775Z,72.18
2017-07-20T12:38:14.640Z,71.27
2017-07-20T12:40:40.494Z,72.08
2017-07-20T12:43:06.493Z,68.61
2017-07-20T12:45:32.510Z,68.38
2017-07-20T12:47:58.513Z,70.07
2017-07-20T12:50:24.549Z,68.63
2017-07-20T12:52:50.572Z,67.03
2017-07-20T12:55:16.473Z,67.08
2017-07-20T12:57:42.305Z,65.70
2017-07-20T13:00:08.208Z,66.10
2017-07-20T13:02:34.064Z,60.76
2017-07-20T13:05:00.059Z,61.97
2017-07-20T13:07:26.006Z,62.20
2017-07-20T13:09:51.854Z,59.91
2017-07-20T13:12:17.693Z,60.89
2017-07-20T13:14:43.485Z,65.46
2017-07-20T13:17:09.337Z,61.65
2017-07-20T13:19:35.213Z,61.73
2017-07-20T13:22:01.753Z,58.03
2017-07-20T13:24:27.579Z,62.38
2017-07-20T13:26:53.379Z,62.83
2017-07-20T13:29:19.309Z,58.80
2017-07-20T13:31:45.152Z,64.56
2017-07-20T13:34:11.045Z,64.39
2017-07-20T13:36:36.883Z,56.68
2017-07-20T13:39:02.797Z,55.60
2017-07-20T13:41:28.692Z,60.00
2017-07-20T13:43:54.624Z,53.74
2017-07-20T13:46:20.709Z,55.21
2017-07-20T13:48:46.656Z,52.94
2017-07-20T13:51:12.484Z,55.99
2017-07-20T13:53:38.335Z,54.06
2017-07-20T13:56:04.306Z,54.15
2017-07-20T13:58:30.364Z,54.36
2017-07-20T14:00:56.402Z,50.35
2017-07-20T14:03:22.334Z,53.00
2017-07-20T14:05:48.180Z,52.47
2017-07-20T14:08:14.149Z,49.76
2017-07-20T14:10:39.967Z,48.87
2017-07-20T14:13:05.890Z,49.39
2017-07-20T14:15:31.820Z,51.76
2017-07-20T14:17:57.676Z,52.93
2017-07-20T14:20:23.492Z,55.23
2017-07-20T14:22:49.361Z,57.25
2017-07-20T14:25:15.285Z,58.35
2017-07-20T14:27:41.145Z,57.23
2017-07-20T14:30:06.948Z,56.73
2017-07-20T14:32:32.758Z,57.14
2017-07-20T14:34:58.702Z,54.15
2017-07-20T14:37:24.568Z,52.27
2017-07-20T14:39:50.394Z,50.75
2017-07-20T14:42:16.274Z,52.93
2017-07-20T14:44:42.129Z,50.34
2017-07-20T14:47:07.961Z,50.32
2017-07-20T14:49:33.931Z,49.01
2017-07-20T14:51:59.936Z,50.31
2017-07-20T14:54:25.778Z,55.48
2017-07-20T14:56:51.651Z,55.63
2017-07-20T14:59:17.582Z,54.95
2017-07-20T15:01:43.425Z,54.60
2017-07-20T15:04:09.310Z,57.25
2017-07-20T15:06:35.232Z,57.23
2017-07-20T15:09:01.049Z,57.59
2017-07-20T15:11:26.883Z,60.75
2017-07-20T15:13:52.704Z,60.62
2017-07-20T15:16:18.597Z,60.93
2017-07-20T15:18:44.532Z,62.76
2017-07-20T15:21:10.346Z,61.61
2017-07-20T15:23:36.205Z,62.27
2017-07-20T15:26:02.065Z,61.58
2017-07-20T15:28:27.970Z,66.56
2017-07-20T15:31:09.092Z,68.13
2017-07-20T15:33:35.069Z,70.64
2017-07-20T15:38:26.660Z,74.63
2017-07-20T15:40:52.524Z,77.84
2017-07-20T15:43:18.334Z,74.29
2017-07-20T15:45:44.161Z,75.50
2017-07-20T15:48:09.953Z,75.81
2017-07-20T15:50:35.799Z,79.30
2017-07-20T15:53:01.659Z,83.44
2017-07-20T15:55:27.572Z,83.61
2017-07-20T15:57:53.366Z,84.61
2017-07-20T16:00:19.214Z,85.01
2017-07-20T16:02:45.074Z,84.51
2017-07-20T16:05:10.877Z,86.00
2017-07-20T16:07:36.744Z,85.32
2017-07-20T16:10:02.549Z,82.77
2017-07-20T16:12:28.357Z,78.07
2017-07-20T16:14:54.218Z,73.33
2017-07-20T16:17:20.135Z,72.66
2017-07-20T16:19:46.122Z,73.89
2017-07-20T16:22:12.046Z,71.28
2017-07-20T16:24:37.856Z,74.29
2017-07-20T16:27:03.841Z,70.07
2017-07-20T16:29:29.668Z,71.18
2017-07-20T16:31:55.530Z,75.91
2017-07-20T16:34:21.656Z,73.80
2017-07-20T16:36:47.496Z,73.45
2017-07-20T16:39:13.296Z,75.08
2017-07-20T16:41:39.253Z,74.46
2017-07-20T16:44:05.140Z,74.84
2017-07-20T16:46:31.081Z,73.27
2017-07-20T16:48:57.093Z,79.30
2017-07-20T16:51:23.865Z,71.16
2017-07-20T16:53:49.667Z,74.94
2017-07-20T16:56:15.629Z,77.97
2017-07-20T16:58:41.485Z,72.40
2017-07-20T17:01:07.337Z,73.35
2017-07-20T17:03:33.133Z,70.84
2017-07-20T17:06:05.950Z,72.32
2017-07-20T17:08:31.769Z,72.05
2017-07-20T17:10:57.579Z,72.03
2017-07-20T17:13:23.412Z,69.87
2017-07-20T17:15:49.457Z,70.67
2017-07-20T17:18:15.296Z,70.02
2017-07-20T17:20:41.121Z,71.05
2017-07-20T17:23:06.913Z,69.68
2017-07-20T17:25:32.745Z,69.41
2017-07-20T17:27:58.564Z,69.29
2017-07-20T17:30:24.370Z,71.15
2017-07-20T17:32:50.236Z,69.89
2017-07-20T17:35:16.221Z,68.13
2017-07-20T17:37:42.064Z,69.36
2017-07-20T17:40:07.920Z,66.70
2017-07-20T17:42:33.904Z,68.35
2017-07-20T17:44:59.741Z,74.83
2017-07-20T17:47:25.577Z,68.10
2017-07-20T17:49:51.474Z,64.52
2017-07-20T17:52:17.390Z,67.30
2017-07-20T17:54:43.423Z,70.89
2017-07-20T17:57:09.456Z,74.57
2017-07-20T17:59:35.422Z,77.03
2017-07-20T18:02:01.207Z,73.14
2017-07-20T18:04:27.135Z,71.30
2017-07-20T18:06:53.237Z,73.18
2017-07-20T18:09:19.211Z,73.17
2017-07-20T18:11:45.172Z,76.74
2017-07-20T18:14:11.231Z,75.53
2017-07-20T18:16:37.178Z,74.92
2017-07-20T18:19:03.046Z,75.88
2017-07-20T18:21:29.280Z,75.00
2017-07-20T18:23:55.315Z,76.37
2017-07-20T18:26:21.450Z,77.97
2017-07-20T18:28:47.685Z,79.74
2017-07-20T18:31:13.708Z,81.68
2017-07-20T18:33:39.617Z,81.72
2017-07-20T18:36:05.509Z,80.03
2017-07-20T18:38:31.943Z,81.46
2017-07-20T18:40:57.819Z,83.29
2017-07-20T18:43:23.642Z,81.37
2017-07-20T18:45:49.465Z,77.79
2017-07-20T18:48:15.337Z,78.68
2017-07-20T18:50:41.246Z,80.31
2017-07-20T18:53:14.117Z,76.87
2017-07-20T18:55:39.949Z,78.83
2017-07-20T18:58:05.955Z,80.48
2017-07-20T19:00:32.025Z,83.31
2017-07-20T19:02:57.981Z,81.14
2017-07-20T19:05:23.860Z,82.18
2017-07-20T19:07:49.751Z,82.58
2017-07-20T19:10:15.613Z,83.95
2017-07-20T19:12:41.483Z,85.10
2017-07-20T19:15:07.316Z,85.85
2017-07-20T19:17:33.262Z,84.70
2017-07-20T19:19:59.155Z,85.15
2017-07-20T19:22:24.958Z,86.71
2017-07-20T19:24:50.781Z,86.58
2017-07-20T19:27:16.648Z,86.08
2017-07-20T19:29:42.622Z,87.35
2017-07-20T19:32:08.423Z,87.28
2017-07-20T19:34:34.237Z,86.83
2017-07-20T19:37:00.057Z,87.55
2017-07-20T19:39:40.865Z,87.67
2017-07-20T19:42:06.875Z,87.44
2017-07-20T19:44:32.797Z,87.31
2017-07-20T19:46:58.756Z,87.68
2017-07-20T19:49:24.720Z,86.93
2017-07-20T19:51:50.529Z,85.37
2017-07-20T19:54:16.468Z,84.19
2017-07-20T19:56:42.318Z,83.39
2017-07-20T19:59:08.169Z,83.15
2017-07-20T20:01:34.015Z,83.29
2017-07-20T20:03:59.836Z,83.95
2017-07-20T20:06:25.688Z,84.99
2017-07-20T20:08:51.630Z,85.52
2017-07-20T20:11:17.483Z,84.28
2017-07-20T20:13:43.310Z,85.65
2017-07-20T20:16:09.399Z,86.04
2017-07-20T20:18:35.380Z,84.27
2017-07-20T20:21:01.227Z,85.02
2017-07-20T20:23:27.159Z,83.84
2017-07-20T20:25:53.100Z,83.00
2017-07-20T20:28:18.969Z,81.97
2017-07-20T20:30:44.887Z,81.15
2017-07-20T20:33:10.746Z,83.00
2017-07-20T20:35:51.651Z,83.11
2017-07-20T20:38:17.509Z,83.70
2017-07-20T20:40:43.431Z,85.84
2017-07-20T20:43:09.233Z,84.08
2017-07-20T20:45:35.196Z,83.43
2017-07-20T20:48:01.168Z,85.00
2017-07-20T20:50:27.212Z,85.74
2017-07-20T20:52:53.261Z,82.26
2017-07-20T20:55:19.160Z,82.67
2017-07-20T20:57:45.010Z,82.09
2017-07-20T21:00:10.931Z,80.64
2017-07-20T21:02:36.947Z,81.42
2017-07-20T21:05:02.841Z,80.88
2017-07-20T21:07:28.649Z,80.64
2017-07-20T21:09:54.518Z,80.71
2017-07-20T21:12:20.413Z,79.95
2017-07-20T21:14:46.321Z,79.33
2017-07-20T21:17:12.268Z,81.08
2017-07-20T21:19:38.103Z,81.07
2017-07-20T21:22:03.915Z,83.80
2017-07-20T21:24:29.799Z,84.64
2017-07-20T21:26:55.725Z,84.56
2017-07-20T21:29:21.560Z,84.87
2017-07-20T21:31:47.376Z,84.80
2017-07-20T21:34:13.280Z,85.92
2017-07-20T21:36:39.262Z,86.11
2017-07-20T21:39:05.117Z,85.41
2017-07-20T21:41:30.928Z,86.31
2017-07-20T21:43:56.775Z,86.88
2017-07-20T21:46:22.678Z,87.25
2017-07-20T21:48:48.557Z,87.39
2017-07-20T21:51:14.413Z,86.29
2017-07-20T21:53:40.352Z,87.40
2017-07-20T21:56:06.272Z,87.09
2017-07-20T21:58:32.182Z,86.74
2017-07-20T22:00:58.105Z,87.13
2017-07-20T22:03:24.072Z,87.21
2017-07-20T22:05:49.943Z,87.43
2017-07-20T22:08:15.768Z,86.92
2017-07-20T22:10:41.735Z,88.47
2017-07-20T22:13:07.649Z,88.81
2017-07-20T22:15:33.591Z,89.11
2017-07-20T22:17:59.434Z,88.76
2017-07-20T22:20:25.245Z,89.01
2017-07-20T22:22:51.077Z,88.54
2017-07-20T22:25:16.987Z,88.54
2017-07-20T22:27:42.834Z,88.80
2017-07-20T22:30:08.676Z,89.02
2017-07-20T22:32:34.546Z,88.98
2017-07-20T22:35:00.409Z,88.83
2017-07-20T22:37:26.338Z,87.83
2017-07-20T22:39:52.162Z,87.74
2017-07-20T22:42:17.998Z,88.34
2017-07-20T22:44:43.879Z,88.30
2017-07-20T22:47:09.782Z,88.49
2017-07-20T22:49:35.682Z,88.86
2017-07-20T22:52:01.526Z,89.00
2017-07-20T22:54:27.482Z,89.24
2017-07-20T22:56:53.308Z,88.48
2017-07-20T22:59:19.136Z,88.84
2017-07-20T23:01:45.008Z,88.96
2017-07-20T23:04:11.027Z,89.26
2017-07-20T23:06:36.946Z,89.19
2017-07-20T23:09:02.826Z,88.83
2017-07-20T23:11:28.707Z,89.18
2017-07-20T23:13:54.643Z,89.17
2017-07-20T23:16:20.461Z,89.10
2017-07-20T23:18:46.298Z,89.28
2017-07-20T23:21:12.151Z,89.44
2017-07-20T23:23:38.134Z,89.44
2017-07-20T23:26:03.939Z,89.52
2017-07-20T23:28:36.676Z,89.20
2017-07-20T23:31:02.555Z,89.34
2017-07-20T23:33:28.406Z,89.28
2017-07-20T23:35:54.209Z,89.20
2017-07-20T23:38:20.068Z,89.29
2017-07-20T23:40:46.000Z,89.62
2017-07-20T23:43:11.825Z,89.31
2017-07-20T23:45:37.658Z,89.13
2017-07-20T23:48:03.501Z,89.05
2017-07-20T23:50:29.346Z,89.27
2017-07-20T23:52:55.227Z,89.21
2017-07-20T23:55:21.118Z,88.33
2017-07-20T23:57:46.968Z,89.02
